sensor_id;sensor_type;location;lat;lon;timestamp;P1;durP1;ratioP1;P2;durP2;ratioP2
26622;SDS011;14254;50.968;5.366;2022-10-17T00:00:18;34.85;;;20.98;;
26622;SDS011;14254;50.968;5.366;2022-10-17T00:02:44;40.90;;;21.52;;
26622;SDS011;14254;50.968;5.366;2022-10-17T00:05:09;34.30;;;21.00;;
26622;SDS011;14254;50.968;5.366;2022-10-17T00:07:36;34.55;;;19.98;;
26622;SDS011;14254;50.968;5.366;2022-10-17T00:10:02;39.97;;;21.90;;
26622;SDS011;14254;50.968;5.366;2022-10-17T00:12:29;32.85;;;19.50;;
26622;SDS011;14254;50.968;5.366;2022-10-17T00:14:54;32.83;;;20.20;;
26622;SDS011;14254;50.968;5.366;2022-10-17T00:17:20;33.80;;;20.88;;
26622;SDS011;14254;50.968;5.366;2022-10-17T00:19:46;36.45;;;21.27;;
26622;SDS011;14254;50.968;5.366;2022-10-17T00:22:11;35.50;;;19.88;;
26622;SDS011;14254;50.968;5.366;2022-10-17T00:24:37;34.65;;;21.38;;
26622;SDS011;14254;50.968;5.366;2022-10-17T00:27:03;35.97;;;21.85;;
26622;SDS011;14254;50.968;5.366;2022-10-17T00:29:28;34.58;;;20.88;;
26622;SDS011;14254;50.968;5.366;2022-10-17T00:31:54;37.95;;;22.60;;
26622;SDS011;14254;50.968;5.366;2022-10-17T00:34:21;36.35;;;21.25;;
26622;SDS011;14254;50.968;5.366;2022-10-17T00:36:47;44.47;;;22.25;;
26622;SDS011;14254;50.968;5.366;2022-10-17T00:39:13;44.00;;;23.25;;
26622;SDS011;14254;50.968;5.366;2022-10-17T00:41:38;42.53;;;24.25;;
26622;SDS011;14254;50.968;5.366;2022-10-17T00:46:58;43.20;;;23.38;;
26622;SDS011;14254;50.968;5.366;2022-10-17T00:49:30;44.78;;;22.98;;
26622;SDS011;14254;50.968;5.366;2022-10-17T00:51:59;44.03;;;23.45;;
26622;SDS011;14254;50.968;5.366;2022-10-17T00:54:32;39.97;;;22.75;;
26622;SDS011;14254;50.968;5.366;2022-10-17T00:57:01;39.90;;;21.90;;
26622;SDS011;14254;50.968;5.366;2022-10-17T00:59:27;45.85;;;22.45;;
26622;SDS011;14254;50.968;5.366;2022-10-17T01:04:47;48.05;;;22.40;;
26622;SDS011;14254;50.968;5.366;2022-10-17T01:07:16;42.63;;;22.40;;
26622;SDS011;14254;50.968;5.366;2022-10-17T01:09:42;42.88;;;23.48;;
26622;SDS011;14254;50.968;5.366;2022-10-17T01:17:47;40.92;;;23.15;;
26622;SDS011;14254;50.968;5.366;2022-10-17T01:29:12;43.38;;;22.98;;
26622;SDS011;14254;50.968;5.366;2022-10-17T01:31:15;37.58;;;22.75;;
26622;SDS011;14254;50.968;5.366;2022-10-17T01:44:53;44.20;;;23.13;;
26622;SDS011;14254;50.968;5.366;2022-10-17T01:47:26;43.25;;;22.00;;
26622;SDS011;14254;50.968;5.366;2022-10-17T01:49:56;45.08;;;21.60;;
26622;SDS011;14254;50.968;5.366;2022-10-17T01:52:40;39.00;;;21.60;;
26622;SDS011;14254;50.968;5.366;2022-10-17T01:55:11;38.90;;;22.67;;
26622;SDS011;14254;50.968;5.366;2022-10-17T01:57:41;39.88;;;22.00;;
26622;SDS011;14254;50.968;5.366;2022-10-17T02:00:22;37.08;;;21.17;;
26622;SDS011;14254;50.968;5.366;2022-10-17T02:02:51;42.45;;;21.65;;
26622;SDS011;14254;50.968;5.366;2022-10-17T02:05:25;52.00;;;24.38;;
26622;SDS011;14254;50.968;5.366;2022-10-17T02:07:55;42.92;;;21.65;;
26622;SDS011;14254;50.968;5.366;2022-10-17T02:10:24;44.95;;;22.40;;
26622;SDS011;14254;50.968;5.366;2022-10-17T02:15:43;57.40;;;23.33;;
26622;SDS011;14254;50.968;5.366;2022-10-17T02:18:34;43.60;;;21.02;;
26622;SDS011;14254;50.968;5.366;2022-10-17T02:21:15;42.83;;;21.33;;
26622;SDS011;14254;50.968;5.366;2022-10-17T02:23:55;44.10;;;22.00;;
26622;SDS011;14254;50.968;5.366;2022-10-17T02:26:35;47.13;;;21.42;;
26622;SDS011;14254;50.968;5.366;2022-10-17T02:29:18;35.53;;;19.95;;
26622;SDS011;14254;50.968;5.366;2022-10-17T02:31:55;42.47;;;20.60;;
26622;SDS011;14254;50.968;5.366;2022-10-17T02:34:32;41.70;;;20.73;;
26622;SDS011;14254;50.968;5.366;2022-10-17T02:37:07;39.72;;;21.27;;
26622;SDS011;14254;50.968;5.366;2022-10-17T02:39:37;41.53;;;21.20;;
26622;SDS011;14254;50.968;5.366;2022-10-17T02:42:05;36.72;;;20.58;;
26622;SDS011;14254;50.968;5.366;2022-10-17T02:44:34;47.70;;;20.92;;
26622;SDS011;14254;50.968;5.366;2022-10-17T02:47:08;38.30;;;20.80;;
26622;SDS011;14254;50.968;5.366;2022-10-17T02:49:55;44.97;;;21.67;;
26622;SDS011;14254;50.968;5.366;2022-10-17T02:52:28;39.25;;;19.10;;
26622;SDS011;14254;50.968;5.366;2022-10-17T02:55:00;34.65;;;19.13;;
26622;SDS011;14254;50.968;5.366;2022-10-17T02:57:45;39.38;;;20.15;;
26622;SDS011;14254;50.968;5.366;2022-10-17T03:00:14;43.28;;;20.75;;
26622;SDS011;14254;50.968;5.366;2022-10-17T03:02:49;47.92;;;21.80;;
26622;SDS011;14254;50.968;5.366;2022-10-17T03:05:23;39.95;;;21.13;;
26622;SDS011;14254;50.968;5.366;2022-10-17T03:07:51;45.22;;;20.10;;
26622;SDS011;14254;50.968;5.366;2022-10-17T03:10:17;36.22;;;20.63;;
26622;SDS011;14254;50.968;5.366;2022-10-17T03:12:43;44.45;;;21.27;;
26622;SDS011;14254;50.968;5.366;2022-10-17T03:15:09;34.75;;;19.90;;
26622;SDS011;14254;50.968;5.366;2022-10-17T03:17:35;32.67;;;19.50;;
26622;SDS011;14254;50.968;5.366;2022-10-17T03:20:03;35.30;;;20.42;;
26622;SDS011;14254;50.968;5.366;2022-10-17T03:22:29;33.35;;;19.02;;
26622;SDS011;14254;50.968;5.366;2022-10-17T03:24:55;30.98;;;18.65;;
26622;SDS011;14254;50.968;5.366;2022-10-17T03:27:21;33.88;;;18.85;;
26622;SDS011;14254;50.968;5.366;2022-10-17T03:29:46;31.85;;;18.52;;
26622;SDS011;14254;50.968;5.366;2022-10-17T03:32:12;33.45;;;19.00;;
26622;SDS011;14254;50.968;5.366;2022-10-17T03:34:37;33.25;;;17.85;;
26622;SDS011;14254;50.968;5.366;2022-10-17T03:37:03;37.88;;;17.88;;
26622;SDS011;14254;50.968;5.366;2022-10-17T03:39:29;26.95;;;16.25;;
26622;SDS011;14254;50.968;5.366;2022-10-17T03:41:54;28.42;;;16.65;;
26622;SDS011;14254;50.968;5.366;2022-10-17T03:44:20;24.35;;;15.40;;
26622;SDS011;14254;50.968;5.366;2022-10-17T03:46:46;22.85;;;14.32;;
26622;SDS011;14254;50.968;5.366;2022-10-17T03:49:11;25.35;;;16.27;;
26622;SDS011;14254;50.968;5.366;2022-10-17T03:51:37;21.70;;;15.02;;
26622;SDS011;14254;50.968;5.366;2022-10-17T03:54:03;24.25;;;14.80;;
26622;SDS011;14254;50.968;5.366;2022-10-17T03:56:28;24.10;;;13.60;;
26622;SDS011;14254;50.968;5.366;2022-10-17T03:58:54;17.60;;;13.90;;
26622;SDS011;14254;50.968;5.366;2022-10-17T04:01:20;20.60;;;13.35;;
26622;SDS011;14254;50.968;5.366;2022-10-17T04:03:50;16.52;;;12.55;;
26622;SDS011;14254;50.968;5.366;2022-10-17T04:06:17;18.15;;;12.57;;
26622;SDS011;14254;50.968;5.366;2022-10-17T04:08:43;29.38;;;12.98;;
26622;SDS011;14254;50.968;5.366;2022-10-17T04:11:09;19.27;;;13.38;;
26622;SDS011;14254;50.968;5.366;2022-10-17T04:13:39;16.55;;;12.82;;
26622;SDS011;14254;50.968;5.366;2022-10-17T04:16:06;20.83;;;12.70;;
26622;SDS011;14254;50.968;5.366;2022-10-17T04:18:34;20.08;;;12.50;;
26622;SDS011;14254;50.968;5.366;2022-10-17T04:21:00;17.55;;;11.00;;
26622;SDS011;14254;50.968;5.366;2022-10-17T04:23:27;18.13;;;11.77;;
26622;SDS011;14254;50.968;5.366;2022-10-17T04:25:59;17.63;;;12.35;;
26622;SDS011;14254;50.968;5.366;2022-10-17T04:28:26;23.70;;;12.27;;
26622;SDS011;14254;50.968;5.366;2022-10-17T04:30:58;22.25;;;12.45;;
26622;SDS011;14254;50.968;5.366;2022-10-17T04:33:25;21.70;;;12.00;;
26622;SDS011;14254;50.968;5.366;2022-10-17T04:36:01;17.27;;;11.95;;
26622;SDS011;14254;50.968;5.366;2022-10-17T04:38:29;23.20;;;12.80;;
26622;SDS011;14254;50.968;5.366;2022-10-17T04:41:02;20.45;;;12.68;;
26622;SDS011;14254;50.968;5.366;2022-10-17T04:43:33;19.35;;;13.15;;
26622;SDS011;14254;50.968;5.366;2022-10-17T04:46:00;25.50;;;14.05;;
26622;SDS011;14254;50.968;5.366;2022-10-17T04:48:28;20.88;;;12.80;;
26622;SDS011;14254;50.968;5.366;2022-10-17T04:50:55;25.27;;;13.48;;
26622;SDS011;14254;50.968;5.366;2022-10-17T04:53:22;21.95;;;12.98;;
26622;SDS011;14254;50.968;5.366;2022-10-17T04:55:48;20.33;;;13.32;;
26622;SDS011;14254;50.968;5.366;2022-10-17T04:58:14;24.60;;;12.88;;
26622;SDS011;14254;50.968;5.366;2022-10-17T05:00:40;15.88;;;12.20;;
26622;SDS011;14254;50.968;5.366;2022-10-17T05:03:06;25.92;;;13.75;;
26622;SDS011;14254;50.968;5.366;2022-10-17T05:05:32;20.77;;;12.43;;
26622;SDS011;14254;50.968;5.366;2022-10-17T05:07:57;18.75;;;13.05;;
26622;SDS011;14254;50.968;5.366;2022-10-17T05:10:23;21.10;;;11.82;;
26622;SDS011;14254;50.968;5.366;2022-10-17T05:12:49;16.10;;;12.35;;
26622;SDS011;14254;50.968;5.366;2022-10-17T05:15:15;28.60;;;12.68;;
26622;SDS011;14254;50.968;5.366;2022-10-17T05:17:41;18.40;;;11.18;;
26622;SDS011;14254;50.968;5.366;2022-10-17T05:20:07;16.35;;;11.48;;
26622;SDS011;14254;50.968;5.366;2022-10-17T05:22:33;15.30;;;10.65;;
26622;SDS011;14254;50.968;5.366;2022-10-17T05:24:58;14.60;;;10.95;;
26622;SDS011;14254;50.968;5.366;2022-10-17T05:27:24;20.73;;;12.23;;
26622;SDS011;14254;50.968;5.366;2022-10-17T05:29:50;23.05;;;11.30;;
26622;SDS011;14254;50.968;5.366;2022-10-17T05:32:15;15.68;;;10.70;;
26622;SDS011;14254;50.968;5.366;2022-10-17T05:34:41;21.15;;;10.38;;
26622;SDS011;14254;50.968;5.366;2022-10-17T05:37:06;13.27;;;9.35;;
26622;SDS011;14254;50.968;5.366;2022-10-17T05:39:32;13.93;;;9.43;;
26622;SDS011;14254;50.968;5.366;2022-10-17T05:41:58;15.00;;;9.90;;
26622;SDS011;14254;50.968;5.366;2022-10-17T05:44:24;17.35;;;9.75;;
26622;SDS011;14254;50.968;5.366;2022-10-17T05:46:49;22.50;;;9.60;;
26622;SDS011;14254;50.968;5.366;2022-10-17T05:49:15;13.50;;;8.77;;
26622;SDS011;14254;50.968;5.366;2022-10-17T05:51:41;17.42;;;8.70;;
26622;SDS011;14254;50.968;5.366;2022-10-17T05:54:07;13.25;;;8.45;;
26622;SDS011;14254;50.968;5.366;2022-10-17T05:56:33;12.50;;;8.80;;
26622;SDS011;14254;50.968;5.366;2022-10-17T05:58:59;14.95;;;8.38;;
26622;SDS011;14254;50.968;5.366;2022-10-17T06:01:25;19.80;;;9.25;;
26622;SDS011;14254;50.968;5.366;2022-10-17T06:03:50;11.25;;;7.68;;
26622;SDS011;14254;50.968;5.366;2022-10-17T06:06:16;12.68;;;8.88;;
26622;SDS011;14254;50.968;5.366;2022-10-17T06:08:43;19.40;;;9.05;;
26622;SDS011;14254;50.968;5.366;2022-10-17T06:11:09;17.35;;;9.20;;
26622;SDS011;14254;50.968;5.366;2022-10-17T06:13:37;15.38;;;8.60;;
26622;SDS011;14254;50.968;5.366;2022-10-17T06:16:03;15.68;;;8.23;;
26622;SDS011;14254;50.968;5.366;2022-10-17T06:18:29;17.05;;;8.48;;
26622;SDS011;14254;50.968;5.366;2022-10-17T06:21:05;15.70;;;8.45;;
26622;SDS011;14254;50.968;5.366;2022-10-17T06:23:33;11.10;;;8.77;;
26622;SDS011;14254;50.968;5.366;2022-10-17T06:26:02;13.15;;;8.82;;
26622;SDS011;14254;50.968;5.366;2022-10-17T06:28:29;17.48;;;8.82;;
26622;SDS011;14254;50.968;5.366;2022-10-17T06:30:55;17.23;;;8.98;;
26622;SDS011;14254;50.968;5.366;2022-10-17T06:33:20;14.15;;;9.25;;
26622;SDS011;14254;50.968;5.366;2022-10-17T06:35:53;18.67;;;10.00;;
26622;SDS011;14254;50.968;5.366;2022-10-17T06:38:20;17.08;;;8.80;;
26622;SDS011;14254;50.968;5.366;2022-10-17T06:40:46;13.27;;;8.32;;
26622;SDS011;14254;50.968;5.366;2022-10-17T06:43:12;13.25;;;8.55;;
26622;SDS011;14254;50.968;5.366;2022-10-17T06:45:38;18.35;;;9.15;;
26622;SDS011;14254;50.968;5.366;2022-10-17T06:48:04;12.65;;;8.25;;
26622;SDS011;14254;50.968;5.366;2022-10-17T06:50:30;16.58;;;8.25;;
26622;SDS011;14254;50.968;5.366;2022-10-17T06:52:56;11.05;;;8.40;;
26622;SDS011;14254;50.968;5.366;2022-10-17T06:55:22;10.18;;;7.25;;
26622;SDS011;14254;50.968;5.366;2022-10-17T06:57:47;13.85;;;8.15;;
26622;SDS011;14254;50.968;5.366;2022-10-17T07:00:13;14.55;;;7.88;;
26622;SDS011;14254;50.968;5.366;2022-10-17T07:02:39;13.27;;;7.25;;
26622;SDS011;14254;50.968;5.366;2022-10-17T07:05:07;13.68;;;7.03;;
26622;SDS011;14254;50.968;5.366;2022-10-17T07:07:33;12.85;;;6.38;;
26622;SDS011;14254;50.968;5.366;2022-10-17T07:09:58;12.88;;;7.10;;
26622;SDS011;14254;50.968;5.366;2022-10-17T07:12:24;12.88;;;7.20;;
26622;SDS011;14254;50.968;5.366;2022-10-17T07:14:50;9.30;;;6.47;;
26622;SDS011;14254;50.968;5.366;2022-10-17T07:17:16;15.35;;;6.55;;
26622;SDS011;14254;50.968;5.366;2022-10-17T07:19:43;11.68;;;7.18;;
26622;SDS011;14254;50.968;5.366;2022-10-17T07:22:09;17.83;;;7.35;;
26622;SDS011;14254;50.968;5.366;2022-10-17T07:24:35;14.07;;;5.90;;
26622;SDS011;14254;50.968;5.366;2022-10-17T07:27:01;15.82;;;7.07;;
26622;SDS011;14254;50.968;5.366;2022-10-17T07:29:27;12.50;;;6.40;;
26622;SDS011;14254;50.968;5.366;2022-10-17T07:31:53;10.65;;;6.10;;
26622;SDS011;14254;50.968;5.366;2022-10-17T07:34:18;8.20;;;5.70;;
26622;SDS011;14254;50.968;5.366;2022-10-17T07:36:44;8.05;;;5.43;;
26622;SDS011;14254;50.968;5.366;2022-10-17T07:39:10;12.10;;;5.85;;
26622;SDS011;14254;50.968;5.366;2022-10-17T07:41:36;6.05;;;4.82;;
26622;SDS011;14254;50.968;5.366;2022-10-17T07:44:01;15.57;;;6.25;;
26622;SDS011;14254;50.968;5.366;2022-10-17T07:46:27;8.98;;;5.68;;
26622;SDS011;14254;50.968;5.366;2022-10-17T07:48:53;10.95;;;5.50;;
26622;SDS011;14254;50.968;5.366;2022-10-17T07:51:19;11.90;;;5.38;;
26622;SDS011;14254;50.968;5.366;2022-10-17T07:53:45;12.32;;;5.13;;
26622;SDS011;14254;50.968;5.366;2022-10-17T07:56:11;10.52;;;5.18;;
26622;SDS011;14254;50.968;5.366;2022-10-17T07:58:37;7.88;;;5.00;;
26622;SDS011;14254;50.968;5.366;2022-10-17T08:01:04;5.80;;;4.53;;
26622;SDS011;14254;50.968;5.366;2022-10-17T08:03:32;5.32;;;4.78;;
26622;SDS011;14254;50.968;5.366;2022-10-17T08:05:59;8.68;;;4.47;;
26622;SDS011;14254;50.968;5.366;2022-10-17T08:08:27;8.75;;;4.95;;
26622;SDS011;14254;50.968;5.366;2022-10-17T08:10:54;12.90;;;4.85;;
26622;SDS011;14254;50.968;5.366;2022-10-17T08:13:23;9.23;;;4.68;;
26622;SDS011;14254;50.968;5.366;2022-10-17T08:15:49;7.93;;;4.70;;
26622;SDS011;14254;50.968;5.366;2022-10-17T08:18:14;13.48;;;5.88;;
26622;SDS011;14254;50.968;5.366;2022-10-17T08:20:41;7.80;;;5.05;;
26622;SDS011;14254;50.968;5.366;2022-10-17T08:23:07;12.27;;;5.05;;
26622;SDS011;14254;50.968;5.366;2022-10-17T08:25:32;8.70;;;5.32;;
26622;SDS011;14254;50.968;5.366;2022-10-17T08:27:58;15.88;;;6.05;;
26622;SDS011;14254;50.968;5.366;2022-10-17T08:30:24;11.73;;;5.45;;
26622;SDS011;14254;50.968;5.366;2022-10-17T08:32:50;18.02;;;5.18;;
26622;SDS011;14254;50.968;5.366;2022-10-17T08:35:15;10.00;;;5.03;;
26622;SDS011;14254;50.968;5.366;2022-10-17T08:37:41;5.90;;;4.80;;
26622;SDS011;14254;50.968;5.366;2022-10-17T08:40:13;7.85;;;4.43;;
26622;SDS011;14254;50.968;5.366;2022-10-17T08:43:01;7.38;;;4.82;;
26622;SDS011;14254;50.968;5.366;2022-10-17T08:46:11;12.80;;;5.07;;
26622;SDS011;14254;50.968;5.366;2022-10-17T08:48:33;7.93;;;4.57;;
26622;SDS011;14254;50.968;5.366;2022-10-17T08:51:14;9.95;;;5.50;;
26622;SDS011;14254;50.968;5.366;2022-10-17T08:53:48;12.35;;;4.80;;
26622;SDS011;14254;50.968;5.366;2022-10-17T08:56:22;6.88;;;5.35;;
26622;SDS011;14254;50.968;5.366;2022-10-17T08:58:50;9.13;;;5.70;;
26622;SDS011;14254;50.968;5.366;2022-10-17T09:07:00;10.68;;;5.40;;
26622;SDS011;14254;50.968;5.366;2022-10-17T09:12:51;6.50;;;4.25;;
26622;SDS011;14254;50.968;5.366;2022-10-17T09:15:28;11.32;;;4.70;;
26622;SDS011;14254;50.968;5.366;2022-10-17T09:18:11;15.48;;;5.93;;
26622;SDS011;14254;50.968;5.366;2022-10-17T09:20:43;8.90;;;5.88;;
26622;SDS011;14254;50.968;5.366;2022-10-17T09:26:03;11.18;;;5.30;;
26622;SDS011;14254;50.968;5.366;2022-10-17T09:30:58;18.27;;;6.20;;
26622;SDS011;14254;50.968;5.366;2022-10-17T09:33:43;11.20;;;4.97;;
26622;SDS011;14254;50.968;5.366;2022-10-17T09:36:16;9.40;;;5.35;;
26622;SDS011;14254;50.968;5.366;2022-10-17T09:38:44;8.65;;;5.40;;
26622;SDS011;14254;50.968;5.366;2022-10-17T09:41:50;9.57;;;5.32;;
26622;SDS011;14254;50.968;5.366;2022-10-17T09:44:13;10.73;;;6.00;;
26622;SDS011;14254;50.968;5.366;2022-10-17T09:52:00;7.53;;;5.43;;
26622;SDS011;14254;50.968;5.366;2022-10-17T09:57:13;13.18;;;6.38;;
26622;SDS011;14254;50.968;5.366;2022-10-17T09:59:40;16.48;;;6.85;;
26622;SDS011;14254;50.968;5.366;2022-10-17T10:04:49;13.73;;;6.88;;
26622;SDS011;14254;50.968;5.366;2022-10-17T10:07:19;13.77;;;6.60;;
26622;SDS011;14254;50.968;5.366;2022-10-17T10:09:46;11.32;;;6.68;;
26622;SDS011;14254;50.968;5.366;2022-10-17T10:12:20;10.40;;;7.10;;
26622;SDS011;14254;50.968;5.366;2022-10-17T10:14:48;11.05;;;6.50;;
26622;SDS011;14254;50.968;5.366;2022-10-17T10:17:34;12.40;;;6.80;;
26622;SDS011;14254;50.968;5.366;2022-10-17T10:20:25;17.48;;;7.75;;
26622;SDS011;14254;50.968;5.366;2022-10-17T10:23:20;14.88;;;6.47;;
26622;SDS011;14254;50.968;5.366;2022-10-17T10:28:14;13.73;;;6.72;;
26622;SDS011;14254;50.968;5.366;2022-10-17T10:30:44;24.58;;;6.72;;
26622;SDS011;14254;50.968;5.366;2022-10-17T10:33:13;12.60;;;7.25;;
26622;SDS011;14254;50.968;5.366;2022-10-17T10:35:39;12.07;;;6.30;;
26622;SDS011;14254;50.968;5.366;2022-10-17T10:38:09;12.23;;;6.07;;
26622;SDS011;14254;50.968;5.366;2022-10-17T10:40:44;12.73;;;6.25;;
26622;SDS011;14254;50.968;5.366;2022-10-17T10:43:19;15.93;;;6.60;;
26622;SDS011;14254;50.968;5.366;2022-10-17T10:45:47;14.60;;;6.60;;
26622;SDS011;14254;50.968;5.366;2022-10-17T10:48:23;12.57;;;6.05;;
26622;SDS011;14254;50.968;5.366;2022-10-17T11:06:44;6.60;;;5.38;;
26622;SDS011;14254;50.968;5.366;2022-10-17T11:12:34;13.00;;;4.95;;
26622;SDS011;14254;50.968;5.366;2022-10-17T11:17:56;12.32;;;5.25;;
26622;SDS011;14254;50.968;5.366;2022-10-17T11:25:52;9.35;;;4.53;;
26622;SDS011;14254;50.968;5.366;2022-10-17T11:28:22;9.50;;;4.13;;
26622;SDS011;14254;50.968;5.366;2022-10-17T11:33:46;13.18;;;4.30;;
26622;SDS011;14254;50.968;5.366;2022-10-17T11:36:34;7.68;;;4.30;;
26622;SDS011;14254;50.968;5.366;2022-10-17T11:39:06;10.13;;;4.72;;
26622;SDS011;14254;50.968;5.366;2022-10-17T11:41:40;6.63;;;4.68;;
26622;SDS011;14254;50.968;5.366;2022-10-17T11:49:35;8.05;;;3.88;;
26622;SDS011;14254;50.968;5.366;2022-10-17T11:54:40;12.98;;;5.25;;
26622;SDS011;14254;50.968;5.366;2022-10-17T12:05:58;9.95;;;3.75;;
26622;SDS011;14254;50.968;5.366;2022-10-17T12:11:17;13.95;;;4.00;;
26622;SDS011;14254;50.968;5.366;2022-10-17T12:14:08;9.40;;;4.25;;
26622;SDS011;14254;50.968;5.366;2022-10-17T12:16:57;11.63;;;4.40;;
26622;SDS011;14254;50.968;5.366;2022-10-17T12:19:24;9.77;;;4.90;;
26622;SDS011;14254;50.968;5.366;2022-10-17T12:22:03;9.75;;;4.65;;
26622;SDS011;14254;50.968;5.366;2022-10-17T12:24:43;8.23;;;4.18;;
26622;SDS011;14254;50.968;5.366;2022-10-17T12:27:27;10.23;;;4.97;;
26622;SDS011;14254;50.968;5.366;2022-10-17T12:32:35;12.45;;;5.88;;
26622;SDS011;14254;50.968;5.366;2022-10-17T12:35:02;14.25;;;5.25;;
26622;SDS011;14254;50.968;5.366;2022-10-17T12:51:18;15.32;;;6.82;;
26622;SDS011;14254;50.968;5.366;2022-10-17T12:56:44;11.65;;;6.68;;
26622;SDS011;14254;50.968;5.366;2022-10-17T12:59:16;15.48;;;7.22;;
26622;SDS011;14254;50.968;5.366;2022-10-17T13:01:48;14.10;;;7.28;;
26622;SDS011;14254;50.968;5.366;2022-10-17T13:04:17;19.42;;;7.40;;
26622;SDS011;14254;50.968;5.366;2022-10-17T13:06:48;19.70;;;7.80;;
26622;SDS011;14254;50.968;5.366;2022-10-17T13:09:23;15.63;;;8.02;;
26622;SDS011;14254;50.968;5.366;2022-10-17T13:11:54;14.43;;;8.85;;
26622;SDS011;14254;50.968;5.366;2022-10-17T13:14:22;10.98;;;8.02;;
26622;SDS011;14254;50.968;5.366;2022-10-17T13:16:50;13.73;;;7.93;;
26622;SDS011;14254;50.968;5.366;2022-10-17T13:19:19;16.92;;;8.55;;
26622;SDS011;14254;50.968;5.366;2022-10-17T13:24:41;18.77;;;9.18;;
26622;SDS011;14254;50.968;5.366;2022-10-17T13:27:20;13.13;;;9.43;;
26622;SDS011;14254;50.968;5.366;2022-10-17T13:29:48;17.48;;;10.23;;
26622;SDS011;14254;50.968;5.366;2022-10-17T13:32:14;20.98;;;9.65;;
26622;SDS011;14254;50.968;5.366;2022-10-17T13:34:40;12.52;;;9.00;;
26622;SDS011;14254;50.968;5.366;2022-10-17T13:37:06;15.32;;;8.88;;
26622;SDS011;14254;50.968;5.366;2022-10-17T13:39:38;18.55;;;10.35;;
26622;SDS011;14254;50.968;5.366;2022-10-17T13:42:13;17.30;;;10.60;;
26622;SDS011;14254;50.968;5.366;2022-10-17T13:44:44;24.20;;;10.07;;
26622;SDS011;14254;50.968;5.366;2022-10-17T13:47:23;22.92;;;11.50;;
26622;SDS011;14254;50.968;5.366;2022-10-17T13:49:54;15.52;;;11.45;;
26622;SDS011;14254;50.968;5.366;2022-10-17T13:52:25;20.60;;;12.20;;
26622;SDS011;14254;50.968;5.366;2022-10-17T13:54:54;28.05;;;12.52;;
26622;SDS011;14254;50.968;5.366;2022-10-17T13:57:30;23.92;;;12.13;;
26622;SDS011;14254;50.968;5.366;2022-10-17T14:00:03;20.95;;;12.45;;
26622;SDS011;14254;50.968;5.366;2022-10-17T14:02:39;17.92;;;11.90;;
26622;SDS011;14254;50.968;5.366;2022-10-17T14:07:43;20.35;;;12.20;;
26622;SDS011;14254;50.968;5.366;2022-10-17T14:10:24;21.73;;;11.95;;
26622;SDS011;14254;50.968;5.366;2022-10-17T14:12:54;23.10;;;13.07;;
26622;SDS011;14254;50.968;5.366;2022-10-17T14:15:21;22.67;;;13.70;;
26622;SDS011;14254;50.968;5.366;2022-10-17T14:17:53;23.77;;;13.38;;
26622;SDS011;14254;50.968;5.366;2022-10-17T14:20:30;24.52;;;12.77;;
26622;SDS011;14254;50.968;5.366;2022-10-17T14:22:58;26.42;;;13.10;;
26622;SDS011;14254;50.968;5.366;2022-10-17T14:25:28;15.45;;;13.23;;
26622;SDS011;14254;50.968;5.366;2022-10-17T14:28:02;23.92;;;13.63;;
26622;SDS011;14254;50.968;5.366;2022-10-17T14:30:36;21.95;;;13.35;;
26622;SDS011;14254;50.968;5.366;2022-10-17T14:33:05;20.17;;;13.30;;
26622;SDS011;14254;50.968;5.366;2022-10-17T14:35:36;21.33;;;13.80;;
26622;SDS011;14254;50.968;5.366;2022-10-17T14:38:04;20.58;;;14.13;;
26622;SDS011;14254;50.968;5.366;2022-10-17T14:40:31;21.77;;;14.45;;
26622;SDS011;14254;50.968;5.366;2022-10-17T14:43:04;25.15;;;14.30;;
26622;SDS011;14254;50.968;5.366;2022-10-17T14:45:31;23.90;;;14.95;;
26622;SDS011;14254;50.968;5.366;2022-10-17T14:48:03;27.70;;;15.35;;
26622;SDS011;14254;50.968;5.366;2022-10-17T14:50:39;20.73;;;14.80;;
26622;SDS011;14254;50.968;5.366;2022-10-17T14:55:34;22.00;;;15.43;;
26622;SDS011;14254;50.968;5.366;2022-10-17T14:58:14;25.50;;;15.70;;
26622;SDS011;14254;50.968;5.366;2022-10-17T15:00:46;23.75;;;15.55;;
26622;SDS011;14254;50.968;5.366;2022-10-17T15:03:12;19.27;;;14.63;;
26622;SDS011;14254;50.968;5.366;2022-10-17T15:05:37;25.52;;;14.77;;
26622;SDS011;14254;50.968;5.366;2022-10-17T15:08:04;23.73;;;14.23;;
26622;SDS011;14254;50.968;5.366;2022-10-17T15:10:41;17.92;;;13.93;;
26622;SDS011;14254;50.968;5.366;2022-10-17T15:13:07;21.92;;;13.85;;
26622;SDS011;14254;50.968;5.366;2022-10-17T15:15:34;21.20;;;13.77;;
26622;SDS011;14254;50.968;5.366;2022-10-17T15:18:01;19.63;;;13.75;;
26622;SDS011;14254;50.968;5.366;2022-10-17T15:20:27;16.77;;;13.20;;
26622;SDS011;14254;50.968;5.366;2022-10-17T15:22:55;21.33;;;13.43;;
26622;SDS011;14254;50.968;5.366;2022-10-17T15:25:22;23.27;;;14.02;;
26622;SDS011;14254;50.968;5.366;2022-10-17T15:27:49;25.88;;;13.43;;
26622;SDS011;14254;50.968;5.366;2022-10-17T15:35:13;24.33;;;13.73;;
26622;SDS011;14254;50.968;5.366;2022-10-17T15:37:39;17.48;;;12.02;;
26622;SDS011;14254;50.968;5.366;2022-10-17T15:40:08;21.52;;;11.80;;
26622;SDS011;14254;50.968;5.366;2022-10-17T15:42:39;19.17;;;12.18;;
26622;SDS011;14254;50.968;5.366;2022-10-17T15:45:05;16.02;;;11.23;;
26622;SDS011;14254;50.968;5.366;2022-10-17T15:47:32;21.85;;;11.68;;
26622;SDS011;14254;50.968;5.366;2022-10-17T15:49:59;22.60;;;12.20;;
26622;SDS011;14254;50.968;5.366;2022-10-17T15:52:25;18.48;;;11.60;;
26622;SDS011;14254;50.968;5.366;2022-10-17T15:54:51;25.23;;;12.23;;
26622;SDS011;14254;50.968;5.366;2022-10-17T15:57:28;18.50;;;12.43;;
26622;SDS011;14254;50.968;5.366;2022-10-17T15:59:56;17.70;;;11.93;;
26622;SDS011;14254;50.968;5.366;2022-10-17T16:02:23;15.20;;;10.85;;
26622;SDS011;14254;50.968;5.366;2022-10-17T16:04:49;23.40;;;12.23;;
26622;SDS011;14254;50.968;5.366;2022-10-17T16:07:16;19.52;;;11.18;;
26622;SDS011;14254;50.968;5.366;2022-10-17T16:09:43;20.40;;;11.90;;
26622;SDS011;14254;50.968;5.366;2022-10-17T16:12:10;23.35;;;11.43;;
26622;SDS011;14254;50.968;5.366;2022-10-17T16:14:39;18.77;;;11.60;;
26622;SDS011;14254;50.968;5.366;2022-10-17T16:17:05;17.63;;;10.93;;
26622;SDS011;14254;50.968;5.366;2022-10-17T16:19:30;18.50;;;10.88;;
26622;SDS011;14254;50.968;5.366;2022-10-17T16:21:56;14.52;;;9.68;;
26622;SDS011;14254;50.968;5.366;2022-10-17T16:24:22;18.42;;;10.27;;
26622;SDS011;14254;50.968;5.366;2022-10-17T16:26:49;14.60;;;9.80;;
26622;SDS011;14254;50.968;5.366;2022-10-17T16:29:15;20.20;;;11.05;;
26622;SDS011;14254;50.968;5.366;2022-10-17T16:31:42;15.82;;;10.63;;
26622;SDS011;14254;50.968;5.366;2022-10-17T16:34:09;14.27;;;9.40;;
26622;SDS011;14254;50.968;5.366;2022-10-17T16:36:39;17.35;;;9.43;;
26622;SDS011;14254;50.968;5.366;2022-10-17T16:39:05;17.55;;;9.68;;
26622;SDS011;14254;50.968;5.366;2022-10-17T16:41:33;14.07;;;9.45;;
26622;SDS011;14254;50.968;5.366;2022-10-17T16:44:02;18.42;;;9.43;;
26622;SDS011;14254;50.968;5.366;2022-10-17T16:46:30;20.45;;;9.07;;
26622;SDS011;14254;50.968;5.366;2022-10-17T16:48:57;14.75;;;9.73;;
26622;SDS011;14254;50.968;5.366;2022-10-17T16:51:23;21.23;;;8.55;;
26622;SDS011;14254;50.968;5.366;2022-10-17T16:53:50;12.38;;;8.57;;
26622;SDS011;14254;50.968;5.366;2022-10-17T16:56:19;11.68;;;8.57;;
26622;SDS011;14254;50.968;5.366;2022-10-17T16:58:46;17.33;;;7.57;;
26622;SDS011;14254;50.968;5.366;2022-10-17T17:01:13;11.63;;;7.28;;
26622;SDS011;14254;50.968;5.366;2022-10-17T17:03:41;14.20;;;7.30;;